createdAt,value
2018-09-08T00:01:48.897Z,11.37
2018-09-08T00:02:48.948Z,11.27
2018-09-08T00:04:41.942Z,9.94
2018-09-08T00:05:41.996Z,10.13
2018-09-08T00:07:34.991Z,12.13
2018-09-08T00:08:35.046Z,11.66
2018-09-08T00:10:28.035Z,11.46
2018-09-08T00:11:28.090Z,11.08
2018-09-08T00:13:21.073Z,8.22
2018-09-08T00:14:21.139Z,11.27
2018-09-08T00:16:14.128Z,10.99
2018-09-08T00:17:14.180Z,8.12
2018-09-08T00:19:07.162Z,8.69
2018-09-08T00:20:07.223Z,9.84
2018-09-08T00:22:00.213Z,8.79
2018-09-08T00:23:00.268Z,11.37
2018-09-08T00:24:53.252Z,8.12
2018-09-08T00:25:53.314Z,11.27
2018-09-08T00:27:46.302Z,8.22
2018-09-08T00:28:46.356Z,7.74
2018-09-08T00:30:39.351Z,8.50
2018-09-08T00:31:39.402Z,7.26
2018-09-08T00:33:32.385Z,9.36
2018-09-08T00:34:32.446Z,7.64
2018-09-08T00:36:25.444Z,8.60
2018-09-08T00:37:25.492Z,10.22
2018-09-08T00:39:18.479Z,9.94
2018-09-08T00:40:18.538Z,10.22
2018-09-08T00:42:11.532Z,12.61
2018-09-08T00:43:11.589Z,10.13
2018-09-08T00:45:04.573Z,9.74
2018-09-08T00:46:04.634Z,9.17
2018-09-08T00:47:57.627Z,13.09
2018-09-08T00:48:57.679Z,10.41
2018-09-08T00:50:50.689Z,11.94
2018-09-08T00:51:50.728Z,8.60
2018-09-08T00:53:44.224Z,10.03
2018-09-08T00:54:44.280Z,8.79
2018-09-08T00:56:37.275Z,8.98
2018-09-08T00:57:37.333Z,8.60
2018-09-08T00:59:30.331Z,7.64
2018-09-08T01:00:30.387Z,8.22
2018-09-08T01:02:23.382Z,4.49
2018-09-08T01:03:23.435Z,5.54
2018-09-08T01:05:16.419Z,7.45
2018-09-08T01:06:16.482Z,6.40
2018-09-08T01:08:09.474Z,7.93
2018-09-08T01:09:09.528Z,8.40
2018-09-08T01:11:02.515Z,7.26
2018-09-08T01:12:02.575Z,9.94
2018-09-08T01:13:55.568Z,7.06
2018-09-08T01:14:55.618Z,7.16
2018-09-08T01:16:48.600Z,5.06
2018-09-08T01:17:48.663Z,6.78
2018-09-08T01:19:41.656Z,5.25
2018-09-08T01:20:41.711Z,4.68
2018-09-08T01:22:34.705Z,4.87
2018-09-08T01:23:34.760Z,2.86
2018-09-08T01:25:27.743Z,3.63
2018-09-08T01:26:27.804Z,3.63
2018-09-08T01:28:20.800Z,2.29
2018-09-08T01:29:20.856Z,0.09
2018-09-08T01:31:13.835Z,1.90
2018-09-08T01:32:13.894Z,0.76
2018-09-08T01:34:06.889Z,0.38
2018-09-08T01:35:06.943Z,0.00
2018-09-08T01:36:59.933Z,0.09
2018-09-08T01:37:59.988Z,0.00
2018-09-08T01:39:52.983Z,0.09
2018-09-08T01:40:53.038Z,0.38
2018-09-08T01:42:46.020Z,0.00
2018-09-08T01:43:46.083Z,0.00
2018-09-08T01:45:39.075Z,0.00
2018-09-08T01:46:39.127Z,0.00
2018-09-08T01:48:32.120Z,0.00
2018-09-08T01:49:32.171Z,0.00
2018-09-08T01:51:25.157Z,0.00
2018-09-08T01:52:25.214Z,0.00
2018-09-08T01:54:18.199Z,0.00
2018-09-08T01:55:18.257Z,0.00
2018-09-08T01:57:11.249Z,0.00
2018-09-08T01:58:11.307Z,0.00
2018-09-08T02:00:04.303Z,0.00
2018-09-08T02:01:04.351Z,0.00
2018-09-08T02:02:57.335Z,0.00
2018-09-08T02:03:57.398Z,0.00
2018-09-08T02:05:50.390Z,0.00
2018-09-08T02:06:50.448Z,0.00
2018-09-08T02:08:43.428Z,0.00
2018-09-08T02:09:43.487Z,0.00
2018-09-08T02:11:36.485Z,0.00
2018-09-08T02:12:36.530Z,0.00
2018-09-08T02:14:29.526Z,0.00
2018-09-08T02:15:29.577Z,0.00
2018-09-08T02:17:22.570Z,0.00
2018-09-08T02:18:22.629Z,0.00
2018-09-08T02:20:15.627Z,0.00
2018-09-08T02:21:15.682Z,0.00
2018-09-08T02:23:08.670Z,0.00
2018-09-08T02:24:08.728Z,0.00
2018-09-08T02:26:01.727Z,0.00
2018-09-08T02:27:01.779Z,0.00
2018-09-08T02:28:54.762Z,0.00
2018-09-08T02:29:54.827Z,0.00
2018-09-08T02:31:47.816Z,0.00
2018-09-08T02:32:47.868Z,0.00
2018-09-08T02:34:40.861Z,0.00
2018-09-08T02:35:40.912Z,0.00
2018-09-08T02:37:33.895Z,0.00
2018-09-08T02:38:33.955Z,0.00
2018-09-08T02:40:26.949Z,0.00
2018-09-08T02:41:27.001Z,0.00
2018-09-08T02:43:19.994Z,0.00
2018-09-08T02:44:20.050Z,0.00
2018-09-08T02:46:13.040Z,0.00
2018-09-08T02:47:13.098Z,0.00
2018-09-08T02:49:06.080Z,0.00
2018-09-08T02:50:06.139Z,0.00
2018-09-08T02:51:59.134Z,0.00
2018-09-08T02:52:59.186Z,0.00
2018-09-08T02:54:52.175Z,0.00
2018-09-08T02:55:52.232Z,0.00
2018-09-08T02:57:45.236Z,0.00
2018-09-08T02:58:45.280Z,0.00
2018-09-08T03:00:38.276Z,0.00
2018-09-08T03:01:38.332Z,0.00
2018-09-08T03:03:31.320Z,0.00
2018-09-08T03:04:31.373Z,0.00
2018-09-08T03:06:24.363Z,0.00
2018-09-08T03:07:24.416Z,0.00
2018-09-08T03:09:17.399Z,0.00
2018-09-08T03:10:17.458Z,0.00
2018-09-08T03:12:10.452Z,0.00
2018-09-08T03:13:10.502Z,0.00
2018-09-08T03:15:03.485Z,0.00
2018-09-08T03:16:03.551Z,0.00
2018-09-08T03:17:56.539Z,0.00
2018-09-08T03:18:56.590Z,0.00
2018-09-08T03:20:49.574Z,0.00
2018-09-08T03:21:49.634Z,0.00
2018-09-08T03:23:42.630Z,0.00
2018-09-08T03:24:42.679Z,0.00
2018-09-08T03:26:35.673Z,0.00
2018-09-08T03:27:35.726Z,0.00
2018-09-08T03:29:28.709Z,0.00
2018-09-08T03:30:28.771Z,0.00
2018-09-08T03:32:21.762Z,0.00
2018-09-08T03:33:21.812Z,0.00
2018-09-08T03:35:14.805Z,0.00
2018-09-08T03:36:14.864Z,0.00
2018-09-08T03:38:07.859Z,0.00
2018-09-08T03:39:07.913Z,0.00
2018-09-08T03:41:00.897Z,0.00
2018-09-08T03:42:00.957Z,0.00
2018-09-08T03:43:53.950Z,0.00
2018-09-08T03:44:54.002Z,0.00
2018-09-08T03:46:46.994Z,0.00
2018-09-08T03:47:47.048Z,0.00
2018-09-08T03:49:40.033Z,0.00
2018-09-08T03:50:40.093Z,0.00
2018-09-08T03:52:33.086Z,0.00
2018-09-08T03:53:33.136Z,0.00
2018-09-08T03:55:26.122Z,0.00
2018-09-08T03:56:26.180Z,0.00
2018-09-08T03:58:19.170Z,0.00
2018-09-08T03:59:19.225Z,0.00
2018-09-08T04:01:12.211Z,0.00
2018-09-08T04:02:12.272Z,0.00
2018-09-08T04:04:05.263Z,0.00
2018-09-08T04:05:05.317Z,0.00
2018-09-08T04:06:58.323Z,0.00
2018-09-08T04:07:58.361Z,0.00
2018-09-08T04:09:51.351Z,0.00
2018-09-08T04:10:51.403Z,0.00
2018-09-08T04:12:44.401Z,0.00
2018-09-08T04:13:44.457Z,0.00
2018-09-08T04:15:37.438Z,0.00
2018-09-08T04:16:37.499Z,0.00
2018-09-08T04:18:30.492Z,0.00
2018-09-08T04:19:30.542Z,0.00
2018-09-08T04:21:23.523Z,0.00
2018-09-08T04:22:23.583Z,0.00
2018-09-08T04:24:16.580Z,0.00
2018-09-08T04:25:16.636Z,0.00
2018-09-08T04:27:09.629Z,0.00
2018-09-08T04:28:09.689Z,0.00
2018-09-08T04:30:02.679Z,0.00
2018-09-08T04:31:02.729Z,0.00
2018-09-08T04:32:55.724Z,0.00
2018-09-08T04:33:55.774Z,0.00
2018-09-08T04:35:48.759Z,0.00
2018-09-08T04:36:48.819Z,0.00
2018-09-08T04:38:41.811Z,0.00
2018-09-08T04:39:41.861Z,0.00
2018-09-08T04:41:34.848Z,0.00
2018-09-08T04:42:34.905Z,0.00
2018-09-08T04:44:27.899Z,0.00
2018-09-08T04:45:27.951Z,0.00
2018-09-08T04:47:20.933Z,0.00
2018-09-08T04:48:20.991Z,0.00
2018-09-08T04:50:13.991Z,0.00
2018-09-08T04:51:14.041Z,0.00
2018-09-08T04:53:07.534Z,0.00
2018-09-08T04:54:07.592Z,0.00
2018-09-08T04:56:00.584Z,0.00
2018-09-08T04:57:00.636Z,0.00
2018-09-08T04:58:53.629Z,0.00
2018-09-08T04:59:53.683Z,0.00
2018-09-08T05:01:46.667Z,0.00
2018-09-08T05:02:46.724Z,0.00
2018-09-08T05:04:39.723Z,0.00
2018-09-08T05:05:39.770Z,0.00
2018-09-08T05:07:32.751Z,0.00
2018-09-08T05:08:32.810Z,0.00
2018-09-08T05:10:25.804Z,0.00
2018-09-08T05:11:25.855Z,0.00
2018-09-08T05:13:18.836Z,0.00
2018-09-08T05:14:18.897Z,0.00
2018-09-08T05:16:11.890Z,0.00
2018-09-08T05:17:11.993Z,0.00
2018-09-08T05:19:04.933Z,0.00
2018-09-08T05:20:04.988Z,0.00
2018-09-08T05:21:57.981Z,0.00
2018-09-08T05:22:58.030Z,0.00
2018-09-08T05:24:51.025Z,0.00
2018-09-08T05:25:51.077Z,0.00
2018-09-08T05:27:44.058Z,0.00
2018-09-08T05:28:44.117Z,0.00
2018-09-08T05:30:37.111Z,0.00
2018-09-08T05:31:37.161Z,0.00
2018-09-08T05:33:30.152Z,0.00
2018-09-08T05:34:30.211Z,0.00
2018-09-08T05:36:23.204Z,0.00
2018-09-08T05:37:23.255Z,0.00
2018-09-08T05:39:16.237Z,0.00
2018-09-08T05:40:16.294Z,0.00
2018-09-08T05:42:09.289Z,0.00
2018-09-08T05:43:09.341Z,0.00
2018-09-08T05:45:02.333Z,0.00
2018-09-08T05:46:02.381Z,0.00
2018-09-08T05:47:55.366Z,0.00
2018-09-08T05:48:55.484Z,0.00
2018-09-08T05:50:48.419Z,0.00
2018-09-08T05:51:48.480Z,0.00
2018-09-08T05:53:41.961Z,0.00
2018-09-08T05:54:42.019Z,0.00
2018-09-08T05:56:35.008Z,0.00
2018-09-08T05:57:35.060Z,0.00
2018-09-08T05:59:28.045Z,0.00
2018-09-08T06:00:28.105Z,0.00
2018-09-08T06:02:21.100Z,0.00
2018-09-08T06:03:21.148Z,0.00
2018-09-08T06:05:14.133Z,0.00
2018-09-08T06:06:14.196Z,0.00
2018-09-08T06:08:07.183Z,0.00
2018-09-08T06:09:07.233Z,0.00
2018-09-08T06:11:00.224Z,0.00
2018-09-08T06:12:00.276Z,0.00
2018-09-08T06:13:53.256Z,0.00
2018-09-08T06:14:53.347Z,0.00
2018-09-08T06:16:46.311Z,0.00
2018-09-08T06:17:46.360Z,0.00
2018-09-08T06:19:39.379Z,0.00
2018-09-08T06:20:39.401Z,0.00
2018-09-08T06:22:32.393Z,0.00
2018-09-08T06:23:32.445Z,0.00
2018-09-08T06:25:25.500Z,0.00
2018-09-08T06:26:25.493Z,0.00
2018-09-08T06:28:18.491Z,0.00
2018-09-08T06:29:18.540Z,0.00
2018-09-08T06:31:11.543Z,0.00
2018-09-08T06:32:11.585Z,0.00
2018-09-08T06:34:04.566Z,0.00
2018-09-08T06:35:04.663Z,0.00
2018-09-08T06:36:57.623Z,0.00
2018-09-08T06:37:57.670Z,0.00
2018-09-08T06:39:50.652Z,25.72
2018-09-08T06:40:50.715Z,62.55
2018-09-08T06:42:43.708Z,82.29
2018-09-08T06:43:43.761Z,85.02
2018-09-08T06:45:36.749Z,89.24
2018-09-08T06:46:36.811Z,87.80
2018-09-08T06:48:29.841Z,88.09
2018-09-08T06:49:29.857Z,88.43
2018-09-08T06:51:22.850Z,87.27
2018-09-08T06:52:22.916Z,87.99
2018-09-08T06:54:15.910Z,87.55
2018-09-08T06:55:15.964Z,86.55
2018-09-08T06:57:08.963Z,86.35
2018-09-08T06:58:09.019Z,86.79
2018-09-08T07:00:02.015Z,87.76
2018-09-08T07:01:02.078Z,86.89
2018-09-08T07:02:55.075Z,85.86
2018-09-08T07:03:55.131Z,81.26
2018-09-08T07:05:48.126Z,77.78
2018-09-08T07:06:48.187Z,77.05
2018-09-08T07:08:41.187Z,68.40
2018-09-08T07:09:41.246Z,66.43
2018-09-08T07:11:34.242Z,73.06
2018-09-08T07:12:34.308Z,80.22
2018-09-08T07:14:27.321Z,83.81
2018-09-08T07:15:27.380Z,85.21
2018-09-08T07:17:20.401Z,77.34
2018-09-08T07:18:20.472Z,79.46
2018-09-08T07:20:13.439Z,84.77
2018-09-08T07:21:13.520Z,85.87
2018-09-08T07:23:06.511Z,87.98
2018-09-08T07:24:06.566Z,86.05
2018-09-08T07:25:59.562Z,85.42
2018-09-08T07:26:59.628Z,83.63
2018-09-08T07:28:52.630Z,82.24
2018-09-08T07:29:52.690Z,84.07
2018-09-08T07:31:45.683Z,82.13
2018-09-08T07:32:45.753Z,79.43
2018-09-08T07:34:38.756Z,76.03
2018-09-08T07:35:38.819Z,71.42
2018-09-08T07:37:31.824Z,72.94
2018-09-08T07:38:31.889Z,71.08
2018-09-08T07:40:24.900Z,68.98
2018-09-08T07:41:24.958Z,71.97
2018-09-08T07:43:17.970Z,79.58
2018-09-08T07:44:18.033Z,83.74
2018-09-08T07:46:11.032Z,84.03
2018-09-08T07:47:11.097Z,84.80
2018-09-08T07:49:04.109Z,84.80
2018-09-08T07:50:04.171Z,84.12
2018-09-08T07:51:57.166Z,85.97
2018-09-08T07:52:57.228Z,85.03
2018-09-08T07:54:50.235Z,82.86
2018-09-08T07:55:50.290Z,76.37
2018-09-08T07:57:43.290Z,71.81
2018-09-08T07:58:43.362Z,71.88
2018-09-08T08:00:36.366Z,68.27
2018-09-08T08:01:36.425Z,63.49
2018-09-08T08:03:29.447Z,69.20
2018-09-08T08:04:29.504Z,66.27
2018-09-08T08:06:22.509Z,62.88
2018-09-08T08:07:22.569Z,64.34
2018-09-08T08:09:15.583Z,61.40
2018-09-08T08:10:15.641Z,59.59
2018-09-08T08:12:08.646Z,59.27
2018-09-08T08:13:08.710Z,58.26
2018-09-08T08:15:01.723Z,59.56
2018-09-08T08:16:01.783Z,59.84
2018-09-08T08:17:54.788Z,55.99
2018-09-08T08:18:54.858Z,55.02
2018-09-08T08:20:47.873Z,55.21
2018-09-08T08:21:47.934Z,53.52
2018-09-08T08:23:40.947Z,53.85
2018-09-08T08:24:41.018Z,54.44
2018-09-08T08:26:34.031Z,53.39
2018-09-08T08:27:34.096Z,53.92
2018-09-08T08:29:27.122Z,53.78
2018-09-08T08:30:27.173Z,53.39
2018-09-08T08:32:20.180Z,53.37
2018-09-08T08:33:20.247Z,53.95
2018-09-08T08:35:13.266Z,53.49
2018-09-08T08:36:13.338Z,53.75
2018-09-08T08:38:06.338Z,56.23
2018-09-08T08:39:06.412Z,57.81
2018-09-08T08:40:59.423Z,59.27
2018-09-08T08:41:59.488Z,57.29
2018-09-08T08:43:52.490Z,57.78
2018-09-08T08:44:52.560Z,56.45
2018-09-08T08:46:45.574Z,56.13
2018-09-08T08:47:45.638Z,56.03
2018-09-08T08:49:38.683Z,59.69
2018-09-08T08:50:38.713Z,59.33
2018-09-08T08:52:31.803Z,58.62
2018-09-08T08:53:31.795Z,59.36
2018-09-08T08:55:24.822Z,63.53
2018-09-08T08:56:24.871Z,66.82
2018-09-08T08:58:17.876Z,68.82
2018-09-08T08:59:17.944Z,67.66
2018-09-08T09:01:10.954Z,70.84
2018-09-08T09:02:11.016Z,70.32
2018-09-08T09:04:04.023Z,75.16
2018-09-08T09:05:04.095Z,77.30
2018-09-08T09:06:57.526Z,80.64
2018-09-08T09:07:57.166Z,82.57
2018-09-08T09:09:50.165Z,84.36
2018-09-08T09:10:50.234Z,84.22
2018-09-08T09:12:43.260Z,85.24
2018-09-08T09:13:43.301Z,85.09
2018-09-08T09:15:36.731Z,85.14
2018-09-08T09:16:36.370Z,85.38
2018-09-08T09:18:29.895Z,85.49
2018-09-08T09:19:29.432Z,83.23
2018-09-08T09:21:22.448Z,83.23
2018-09-08T09:22:22.496Z,84.62
2018-09-08T09:24:15.958Z,84.91
2018-09-08T09:25:15.562Z,82.65
2018-09-08T09:27:08.562Z,84.81
2018-09-08T09:28:08.624Z,83.75
2018-09-08T09:30:01.620Z,83.75
2018-09-08T09:31:01.694Z,85.05
2018-09-08T09:32:54.690Z,85.82
2018-09-08T09:33:54.750Z,85.00
2018-09-08T09:35:47.749Z,83.56
2018-09-08T09:36:47.814Z,85.05
2018-09-08T09:38:40.864Z,85.91
2018-09-08T09:39:40.924Z,85.05
2018-09-08T09:41:33.919Z,84.22
2018-09-08T09:42:33.997Z,86.82
2018-09-08T09:44:26.991Z,85.09
2018-09-08T09:45:27.049Z,84.84
2018-09-08T09:47:20.048Z,85.52
2018-09-08T09:48:20.105Z,84.94
2018-09-08T09:50:13.100Z,85.52
2018-09-08T09:51:13.166Z,84.84
2018-09-08T09:53:06.172Z,81.72
2018-09-08T09:54:06.229Z,85.38
2018-09-08T09:55:59.224Z,87.46
2018-09-08T09:56:59.289Z,85.43
2018-09-08T09:58:52.290Z,85.05
2018-09-08T09:59:52.352Z,85.05
2018-09-08T10:01:45.356Z,85.49
2018-09-08T10:02:45.424Z,86.59
2018-09-08T10:04:38.422Z,85.28
2018-09-08T10:05:38.482Z,84.52
2018-09-08T10:07:31.483Z,85.38
2018-09-08T10:08:31.546Z,84.03
2018-09-08T10:10:24.547Z,84.38
2018-09-08T10:11:24.604Z,86.01
2018-09-08T10:13:17.596Z,85.24
2018-09-08T10:14:17.664Z,85.91
2018-09-08T10:16:10.673Z,85.00
2018-09-08T10:17:10.732Z,84.72
2018-09-08T10:19:03.746Z,85.39
2018-09-08T10:20:03.793Z,85.91
2018-09-08T10:21:56.802Z,85.72
2018-09-08T10:22:56.901Z,84.72
2018-09-08T10:24:49.869Z,85.53
2018-09-08T10:25:49.929Z,83.95
2018-09-08T10:27:42.929Z,85.00
2018-09-08T10:28:42.989Z,85.82
2018-09-08T10:30:36.020Z,84.81
2018-09-08T10:31:36.049Z,84.95
2018-09-08T10:33:29.047Z,83.80
2018-09-08T10:34:29.110Z,81.39
2018-09-08T10:36:22.114Z,81.96
2018-09-08T10:37:22.174Z,83.84
2018-09-08T10:39:15.174Z,82.87
2018-09-08T10:40:15.268Z,83.16
2018-09-08T10:42:08.238Z,83.80
2018-09-08T10:43:08.295Z,84.18
2018-09-08T10:45:01.297Z,84.62
2018-09-08T10:46:01.355Z,83.47
2018-09-08T10:47:54.347Z,84.23
2018-09-08T10:48:54.412Z,83.95
2018-09-08T10:50:47.443Z,85.58
2018-09-08T10:51:47.468Z,83.85
2018-09-08T10:53:40.973Z,84.23
2018-09-08T10:54:41.040Z,84.23
2018-09-08T10:56:34.039Z,84.76
2018-09-08T10:57:34.098Z,83.61
2018-09-08T10:59:27.094Z,84.28
2018-09-08T11:00:27.156Z,82.87
2018-09-08T11:02:20.524Z,83.12
2018-09-08T11:03:20.219Z,84.38
2018-09-08T11:05:13.219Z,86.01
2018-09-08T11:06:13.282Z,85.68
2018-09-08T11:08:06.288Z,85.20
2018-09-08T11:09:06.346Z,84.14
2018-09-08T11:10:59.351Z,81.06
2018-09-08T11:11:59.412Z,81.96
2018-09-08T11:13:52.405Z,82.06
2018-09-08T11:14:52.468Z,81.39
2018-09-08T11:16:45.492Z,82.26
2018-09-08T11:17:45.556Z,78.11
2018-09-08T11:19:38.546Z,81.04
2018-09-08T11:20:38.612Z,78.83
2018-09-08T11:22:31.612Z,80.56
2018-09-08T11:23:31.671Z,77.58
2018-09-08T11:25:24.682Z,75.45
2018-09-08T11:26:24.741Z,77.96
2018-09-08T11:28:17.743Z,75.01
2018-09-08T11:29:17.801Z,75.07
2018-09-08T11:31:10.823Z,76.13
2018-09-08T11:32:10.860Z,80.76
2018-09-08T11:34:03.860Z,79.21
2018-09-08T11:35:03.921Z,78.00
2018-09-08T11:36:56.920Z,73.66
2018-09-08T11:37:57.037Z,72.69
2018-09-08T11:39:49.974Z,73.95
2018-09-08T11:40:50.069Z,73.33
2018-09-08T11:42:43.038Z,75.07
2018-09-08T11:43:43.094Z,77.76
2018-09-08T11:45:36.091Z,77.00
2018-09-08T11:46:36.153Z,80.37
2018-09-08T11:48:29.156Z,77.00
2018-09-08T11:49:29.219Z,75.26
2018-09-08T11:51:22.209Z,77.67
2018-09-08T11:52:22.274Z,74.88
2018-09-08T11:54:15.783Z,79.41
2018-09-08T11:55:15.839Z,81.81
2018-09-08T11:57:08.847Z,80.18
2018-09-08T11:58:08.899Z,79.85
2018-09-08T12:00:01.909Z,81.39
2018-09-08T12:01:01.958Z,81.73
2018-09-08T12:02:55.010Z,81.16
2018-09-08T12:03:55.014Z,82.64
2018-09-08T12:05:48.008Z,83.89
2018-09-08T12:06:48.073Z,83.99
2018-09-08T12:08:41.075Z,80.76
2018-09-08T12:09:41.131Z,77.38
2018-09-08T12:11:34.124Z,80.41
2018-09-08T12:12:34.191Z,79.54
2018-09-08T12:14:27.193Z,76.10
2018-09-08T12:15:27.268Z,71.25
2018-09-08T12:17:20.246Z,76.84
2018-09-08T12:18:20.309Z,70.57
2018-09-08T12:20:13.310Z,71.25
2018-09-08T12:21:13.368Z,70.48
2018-09-08T12:23:06.370Z,72.89
2018-09-08T12:24:06.427Z,73.47
2018-09-08T12:25:59.421Z,77.96
2018-09-08T12:26:59.487Z,77.03
2018-09-08T12:28:52.492Z,76.23
2018-09-08T12:29:52.547Z,74.68
2018-09-08T12:31:45.542Z,76.13
2018-09-08T12:32:45.609Z,75.65
2018-09-08T12:34:38.606Z,79.21
2018-09-08T12:35:38.666Z,77.96
2018-09-08T12:37:31.661Z,78.69
2018-09-08T12:38:31.759Z,80.62
2018-09-08T12:40:24.726Z,78.21
2018-09-08T12:41:24.782Z,81.33
2018-09-08T12:43:17.780Z,79.21
2018-09-08T12:44:17.845Z,73.91
2018-09-08T12:46:10.844Z,73.43
2018-09-08T12:47:10.902Z,73.33
2018-09-08T12:49:03.903Z,77.96
2018-09-08T12:50:03.960Z,72.50
2018-09-08T12:51:56.952Z,73.95
2018-09-08T12:52:57.019Z,71.06
2018-09-08T12:54:50.030Z,72.02
2018-09-08T12:55:50.080Z,69.90
2018-09-08T12:57:43.076Z,71.92
2018-09-08T12:58:43.143Z,67.20
2018-09-08T13:00:36.144Z,67.78
2018-09-08T13:01:36.199Z,69.87
2018-09-08T13:03:29.191Z,74.58
2018-09-08T13:04:29.256Z,75.07
2018-09-08T13:06:22.259Z,74.88
2018-09-08T13:07:22.318Z,77.96
2018-09-08T13:09:15.320Z,69.29
2018-09-08T13:10:15.376Z,72.37
2018-09-08T13:12:08.373Z,77.90
2018-09-08T13:13:08.437Z,71.54
2018-09-08T13:15:01.445Z,70.00
2018-09-08T13:16:01.498Z,69.03
2018-09-08T13:17:54.494Z,62.86
2018-09-08T13:18:54.561Z,63.98
2018-09-08T13:20:47.560Z,68.90
2018-09-08T13:21:47.618Z,67.84
2018-09-08T13:23:40.612Z,68.32
2018-09-08T13:24:40.678Z,68.74
2018-09-08T13:26:33.679Z,66.78
2018-09-08T13:27:33.740Z,70.25
2018-09-08T13:29:26.736Z,66.78
2018-09-08T13:30:26.797Z,66.78
2018-09-08T13:32:19.797Z,69.19
2018-09-08T13:33:19.855Z,69.57
2018-09-08T13:35:12.856Z,64.69
2018-09-08T13:36:12.911Z,65.47
2018-09-08T13:38:05.906Z,62.48
2018-09-08T13:39:05.973Z,63.06
2018-09-08T13:40:58.974Z,62.12
2018-09-08T13:41:59.033Z,61.80
2018-09-08T13:43:52.028Z,59.48
2018-09-08T13:44:52.092Z,59.39
2018-09-08T13:46:45.108Z,59.58
2018-09-08T13:47:45.168Z,59.10
2018-09-08T13:49:38.159Z,58.65
2018-09-08T13:50:38.224Z,57.87
2018-09-08T13:52:31.228Z,58.10
2018-09-08T13:53:31.285Z,61.96
2018-09-08T13:55:24.286Z,56.74
2018-09-08T13:56:24.346Z,58.00
2018-09-08T13:58:17.348Z,59.23
2018-09-08T13:59:17.407Z,60.26
2018-09-08T14:01:10.411Z,60.90
2018-09-08T14:02:10.470Z,63.02
2018-09-08T14:04:03.487Z,61.00
2018-09-08T14:05:03.530Z,61.19
2018-09-08T14:06:56.527Z,60.23
2018-09-08T14:07:56.589Z,62.25
2018-09-08T14:09:49.591Z,65.43
2018-09-08T14:10:49.651Z,61.22
2018-09-08T14:12:42.651Z,61.58
2018-09-08T14:13:42.708Z,61.51
2018-09-08T14:15:35.701Z,61.68
2018-09-08T14:16:35.767Z,63.21
2018-09-08T14:18:28.768Z,61.00
2018-09-08T14:19:28.840Z,60.35
2018-09-08T14:21:21.826Z,60.10
2018-09-08T14:22:21.882Z,59.23
2018-09-08T14:24:14.877Z,59.52
2018-09-08T14:25:14.967Z,59.00
2018-09-08T14:27:07.979Z,60.16
2018-09-08T14:28:08.054Z,60.90
2018-09-08T14:30:01.014Z,61.48
2018-09-08T14:31:01.080Z,62.83
2018-09-08T14:32:54.086Z,62.38
2018-09-08T14:33:54.145Z,60.80
2018-09-08T14:35:47.139Z,62.35
2018-09-08T14:36:47.246Z,62.25
2018-09-08T14:38:40.207Z,63.12
2018-09-08T14:39:40.266Z,64.02
2018-09-08T14:41:33.258Z,62.18
2018-09-08T14:42:33.325Z,60.16
2018-09-08T14:44:26.321Z,62.48
2018-09-08T14:45:26.381Z,63.02
2018-09-08T14:47:19.410Z,62.73
2018-09-08T14:48:19.443Z,63.31
2018-09-08T14:50:12.438Z,63.98
2018-09-08T14:51:12.503Z,63.79
2018-09-08T14:53:05.511Z,66.49
2018-09-08T14:54:05.574Z,64.56
2018-09-08T14:55:58.569Z,65.24
2018-09-08T14:56:58.915Z,64.28
2018-09-08T14:58:51.637Z,65.33
2018-09-08T14:59:51.790Z,66.30
2018-09-08T15:01:44.688Z,67.40
2018-09-08T15:02:44.752Z,67.58
2018-09-08T15:04:37.788Z,64.69
2018-09-08T15:05:37.808Z,68.65
2018-09-08T15:07:30.815Z,65.95
2018-09-08T15:08:30.868Z,65.53
2018-09-08T15:10:23.860Z,69.09
2018-09-08T15:11:23.927Z,67.84
2018-09-08T15:13:16.932Z,71.31
2018-09-08T15:14:16.988Z,68.87
2018-09-08T15:16:09.974Z,70.60
2018-09-08T15:17:10.039Z,72.05
2018-09-08T15:19:03.039Z,71.56
2018-09-08T15:20:03.097Z,68.38
2018-09-08T15:21:56.091Z,69.25
2018-09-08T15:22:56.155Z,69.45
2018-09-08T15:24:49.198Z,71.56
2018-09-08T15:25:49.210Z,67.52
2018-09-08T15:27:42.204Z,68.29
2018-09-08T15:28:42.267Z,71.18
2018-09-08T15:30:35.270Z,71.85
2018-09-08T15:31:35.327Z,67.71
2018-09-08T15:33:28.345Z,68.68
2018-09-08T15:34:28.381Z,70.02
2018-09-08T15:36:21.375Z,69.73
2018-09-08T15:37:21.738Z,71.47
2018-09-08T15:39:14.437Z,71.18
2018-09-08T15:40:14.512Z,70.02
2018-09-08T15:42:07.490Z,69.93
2018-09-08T15:43:07.557Z,71.56
2018-09-08T15:45:00.554Z,75.19
2018-09-08T15:46:00.625Z,76.92
2018-09-08T15:47:53.612Z,75.48
2018-09-08T15:48:53.664Z,74.41
2018-09-08T15:50:46.671Z,76.53
2018-09-08T15:51:46.729Z,75.96
2018-09-08T15:53:39.739Z,75.96
2018-09-08T15:54:39.786Z,74.13
2018-09-08T15:56:32.785Z,74.19
2018-09-08T15:57:32.842Z,73.55
2018-09-08T15:59:25.859Z,73.80
2018-09-08T16:00:25.918Z,74.19
2018-09-08T16:02:18.907Z,76.92
2018-09-08T16:03:18.972Z,74.71
2018-09-08T16:05:11.972Z,74.22
2018-09-08T16:06:12.027Z,77.50
2018-09-08T16:08:05.019Z,76.63
2018-09-08T16:09:05.082Z,75.86
2018-09-08T16:10:58.138Z,77.98
2018-09-08T16:11:58.137Z,77.88
2018-09-08T16:13:51.133Z,77.69
2018-09-08T16:14:51.195Z,78.65
2018-09-08T16:16:44.192Z,78.56
2018-09-08T16:17:44.245Z,79.33
2018-09-08T16:19:37.754Z,78.46
2018-09-08T16:20:37.813Z,78.85
2018-09-08T16:22:30.804Z,78.56
2018-09-08T16:23:30.870Z,79.43
2018-09-08T16:25:23.868Z,80.29
2018-09-08T16:26:23.933Z,78.27
2018-09-08T16:28:16.924Z,79.77
2018-09-08T16:29:16.978Z,80.48
2018-09-08T16:31:09.979Z,81.83
2018-09-08T16:32:10.038Z,80.87
2018-09-08T16:34:03.029Z,79.43
2018-09-08T16:35:03.096Z,80.00
2018-09-08T16:36:56.094Z,79.38
2018-09-08T16:37:56.161Z,79.38
2018-09-08T16:39:49.150Z,80.06
2018-09-08T16:40:49.216Z,80.44
2018-09-08T16:42:42.213Z,80.63
2018-09-08T16:43:42.266Z,80.73
2018-09-08T16:45:35.269Z,81.21
2018-09-08T16:46:35.328Z,81.40
2018-09-08T16:48:28.319Z,82.37
2018-09-08T16:49:28.383Z,81.50
2018-09-08T16:51:21.397Z,80.63
2018-09-08T16:52:21.472Z,82.75
2018-09-08T16:54:14.435Z,82.85
2018-09-08T16:55:14.501Z,81.70
2018-09-08T16:57:07.500Z,82.90
2018-09-08T16:58:07.598Z,82.85
2018-09-08T17:00:00.555Z,82.71
2018-09-08T17:01:00.612Z,83.39
2018-09-08T17:02:53.615Z,83.48
2018-09-08T17:03:53.668Z,83.00
2018-09-08T17:05:46.663Z,83.09
2018-09-08T17:06:46.784Z,83.67
2018-09-08T17:08:39.728Z,83.67
2018-09-08T17:09:39.783Z,84.06
2018-09-08T17:11:32.781Z,84.73
2018-09-08T17:12:32.838Z,84.06
2018-09-08T17:14:25.831Z,84.63
2018-09-08T17:15:25.899Z,84.63
2018-09-08T17:17:18.902Z,85.02
2018-09-08T17:18:18.952Z,85.02
2018-09-08T17:20:11.953Z,84.73
2018-09-08T17:21:12.023Z,85.40
2018-09-08T17:23:05.018Z,85.60
2018-09-08T17:24:05.072Z,85.40
2018-09-08T17:25:58.073Z,85.50
2018-09-08T17:26:58.128Z,85.69
2018-09-08T17:28:51.130Z,84.92
2018-09-08T17:29:51.192Z,85.40
2018-09-08T17:31:44.181Z,85.69
2018-09-08T17:32:44.243Z,85.31
2018-09-08T17:34:37.244Z,85.21
2018-09-08T17:35:37.298Z,85.40
2018-09-08T17:37:30.294Z,85.75
2018-09-08T17:38:30.361Z,85.36
2018-09-08T17:40:23.358Z,85.46
2018-09-08T17:41:23.411Z,85.84
2018-09-08T17:43:16.440Z,85.55
2018-09-08T17:44:16.467Z,85.46
2018-09-08T17:46:09.468Z,86.13
2018-09-08T17:47:09.526Z,84.98
2018-09-08T17:49:02.531Z,86.52
2018-09-08T17:50:02.591Z,85.75
2018-09-08T17:51:55.647Z,84.98
2018-09-08T17:52:55.646Z,86.22
2018-09-08T17:54:48.643Z,84.88
2018-09-08T17:55:48.792Z,85.75
2018-09-08T17:57:41.773Z,86.04
2018-09-08T17:58:41.774Z,85.65
2018-09-08T18:00:34.760Z,85.84
2018-09-08T18:01:34.814Z,81.99
2018-09-08T18:03:27.818Z,84.88
2018-09-08T18:04:28.090Z,84.88
2018-09-08T18:06:20.867Z,84.84
2018-09-08T18:07:20.934Z,85.03
2018-09-08T18:09:13.930Z,83.59
2018-09-08T18:10:13.982Z,84.26
2018-09-08T18:12:06.980Z,83.97
2018-09-08T18:13:07.044Z,84.26
2018-09-08T18:15:00.047Z,83.87
2018-09-08T18:16:00.105Z,82.15
2018-09-08T18:17:53.087Z,80.71
2018-09-08T18:18:53.153Z,84.17
2018-09-08T18:20:46.160Z,81.57
2018-09-08T18:21:46.218Z,83.59
2018-09-08T18:23:39.217Z,79.94
2018-09-08T18:24:39.276Z,81.09
2018-09-08T18:26:32.273Z,79.94
2018-09-08T18:27:32.327Z,79.27
2018-09-08T18:29:25.332Z,83.49
2018-09-08T18:30:25.392Z,81.05
2018-09-08T18:32:18.382Z,81.82
2018-09-08T18:33:18.447Z,80.22
2018-09-08T18:35:11.445Z,79.80
2018-09-08T18:36:11.496Z,82.01
2018-09-08T18:38:04.494Z,80.57
2018-09-08T18:39:04.557Z,79.99
2018-09-08T18:40:57.599Z,75.77
2018-09-08T18:41:57.608Z,77.21
2018-09-08T18:43:50.627Z,79.22
2018-09-08T18:44:50.666Z,77.11
2018-09-08T18:46:43.663Z,72.22